Time;durP1;ratioP1;P1;durP2;ratioP2;P2;SDS_P1;SDS_P2;PMS_P1;PMS_P2;Temp;Humidity;BMP_temperature;BMP_pressure;BME280_temperature;BME280_humidity;BME280_pressure;Samples;Min_cycle;Max_cycle;Signal;HPM_P1;HPM_P2
2023/01/15 00:00:13;;;;;;;11.60;4.70;;;;;;;3.45;67.21;96825.52;108901;1251;101113;-73
2023/01/15 00:03:01;;;;;;;8.80;4.40;;;;;;;3.51;67.18;96820.94;108843;1251;101599;-74
2023/01/15 00:05:30;;;;;;;10.20;4.00;;;;;;;3.55;66.85;96819.33;108826;1251;95961;-73
2023/01/15 00:07:58;;;;;;;8.30;3.60;;;;;;;3.58;66.77;96822.68;108632;1251;95999;-73
2023/01/15 00:10:26;;;;;;;8.70;3.50;;;;;;;3.63;66.57;96818.38;108871;1251;103857;-73
2023/01/15 00:12:54;;;;;;;6.80;3.70;;;;;;;3.66;66.34;96817.36;108856;1251;101354;-73
2023/01/15 00:15:22;;;;;;;6.90;3.70;;;;;;;3.70;66.45;96823.79;108844;1251;99857;-74
2023/01/15 00:17:50;;;;;;;7.00;3.10;;;;;;;3.74;66.37;96824.14;108864;1251;95555;-75
2023/01/15 00:20:19;;;;;;;7.60;4.00;;;;;;;3.81;66.22;96821.14;108904;1251;96005;-73
2023/01/15 00:22:47;;;;;;;7.80;4.40;;;;;;;3.87;65.83;96818.13;108905;1251;103580;-75
2023/01/15 00:28:00;;;;;;;8.50;4.70;;;;;;;3.88;65.35;96822.20;108857;1251;100037;-73
2023/01/15 00:30:29;;;;;;;11.70;5.30;;;;;;;3.89;65.36;96819.52;108858;1251;96047;-73
2023/01/15 00:32:58;;;;;;;12.00;6.00;;;;;;;3.89;65.33;96820.38;108859;1251;95994;-75
2023/01/15 00:35:26;;;;;;;11.00;6.10;;;;;;;3.89;65.12;96823.01;108862;1251;103090;-74
2023/01/15 00:37:54;;;;;;;11.10;6.50;;;;;;;3.90;65.08;96823.96;108822;1251;101460;-74
2023/01/15 00:40:22;;;;;;;14.10;6.60;;;;;;;3.91;64.96;96823.86;108767;1251;99906;-74
2023/01/15 00:42:50;;;;;;;12.80;6.50;;;;;;;3.91;65.00;96821.88;108736;1252;95530;-73
2023/01/15 00:45:19;;;;;;;12.80;6.70;;;;;;;3.85;64.92;96815.73;108845;1251;96122;-74
2023/01/15 00:47:49;;;;;;;9.90;5.40;;;;;;;3.79;64.82;96817.45;108716;1251;227084;-73
2023/01/15 00:50:17;;;;;;;11.20;5.90;;;;;;;3.78;64.79;96814.39;108890;1251;101157;-74
2023/01/15 00:52:45;;;;;;;9.20;5.90;;;;;;;3.75;64.60;96810.89;108890;1251;99747;-74
2023/01/15 00:55:13;;;;;;;10.50;5.20;;;;;;;3.74;64.66;96815.44;108872;1251;95557;-74
2023/01/15 00:57:41;;;;;;;11.70;5.80;;;;;;;3.73;64.79;96816.13;108892;1251;96057;-74
2023/01/15 01:00:11;;;;;;;11.20;5.30;;;;;;;3.71;64.76;96814.01;108874;1251;103502;-72
2023/01/15 01:02:39;;;;;;;8.30;5.40;;;;;;;3.66;64.67;96812.55;108525;1256;101796;-75
2023/01/15 01:05:07;;;;;;;11.80;5.20;;;;;;;3.58;64.61;96805.20;108543;1255;99726;-75
2023/01/15 01:07:36;;;;;;;9.00;3.90;;;;;;;3.57;64.56;96799.27;108527;1256;95779;-74
2023/01/15 01:10:04;;;;;;;10.30;4.70;;;;;;;3.61;64.63;96796.00;108583;1257;95710;-73
2023/01/15 01:12:32;;;;;;;8.00;4.90;;;;;;;3.63;64.53;96785.82;108284;1256;102927;-74
2023/01/15 01:15:00;;;;;;;11.40;4.60;;;;;;;3.64;64.47;96778.73;108565;1256;101440;-75
2023/01/15 01:17:28;;;;;;;10.80;5.50;;;;;;;3.66;64.33;96770.02;108511;1255;99912;-74
2023/01/15 01:19:56;;;;;;;6.60;4.20;;;;;;;3.68;64.30;96767.96;108253;1257;95636;-74
2023/01/15 01:22:24;;;;;;;7.00;4.30;;;;;;;3.70;64.29;96759.49;108518;1255;96118;-74
2023/01/15 01:24:52;;;;;;;7.80;4.00;;;;;;;3.73;64.20;96760.56;108540;1256;103648;-74
2023/01/15 01:27:21;;;;;;;7.60;4.00;;;;;;;3.76;64.05;96753.45;108578;1257;101206;-73
2023/01/15 01:29:49;;;;;;;7.60;4.40;;;;;;;3.78;63.92;96750.19;108254;1257;98454;-72
2023/01/15 01:32:17;;;;;;;8.20;4.40;;;;;;;3.80;63.80;96738.73;108468;1256;95726;-74
2023/01/15 01:34:45;;;;;;;7.60;4.60;;;;;;;3.84;63.83;96724.20;108266;1257;95995;-74
2023/01/15 01:37:13;;;;;;;8.00;4.00;;;;;;;3.88;63.77;96723.20;108563;1257;103072;-75
2023/01/15 01:39:41;;;;;;;9.50;4.70;;;;;;;3.91;63.68;96715.36;108570;1253;101545;-74
2023/01/15 01:42:14;;;;;;;7.20;4.40;;;;;;;3.94;63.62;96709.78;108740;1254;100368;-73
2023/01/15 01:44:45;;;;;;;9.10;4.40;;;;;;;3.96;63.31;96706.83;108840;1251;95571;-74
2023/01/15 01:47:25;;;;;;;8.10;4.30;;;;;;;3.99;63.21;96713.58;108675;1251;96051;-74
2023/01/15 01:50:06;;;;;;;9.00;5.10;;;;;;;4.01;63.16;96712.32;108889;1251;103059;-73
2023/01/15 01:52:47;;;;;;;9.50;5.70;;;;;;;4.01;63.26;96702.20;108876;1251;100112;-73
2023/01/15 01:55:18;;;;;;;12.20;6.80;;;;;;;4.02;62.92;96700.16;108873;1251;100098;-76
2023/01/15 01:57:48;;;;;;;12.80;6.20;;;;;;;4.03;62.91;96690.54;108839;1251;95592;-74
2023/01/15 02:00:16;;;;;;;10.80;6.00;;;;;;;4.06;62.87;96690.94;108866;1255;96041;-75
2023/01/15 02:02:47;;;;;;;10.10;5.80;;;;;;;4.06;62.68;96684.11;108868;1251;102455;-74
2023/01/15 02:05:38;;;;;;;10.00;6.20;;;;;;;4.07;62.62;96679.16;108538;1251;101013;-74
2023/01/15 02:08:07;;;;;;;10.00;5.30;;;;;;;4.08;62.61;96674.95;108795;1253;99970;-75
2023/01/15 02:10:36;;;;;;;9.10;5.70;;;;;;;4.10;62.43;96675.05;108828;1251;95718;-75
2023/01/15 02:13:21;;;;;;;11.10;5.90;;;;;;;4.13;62.22;96664.02;108916;1251;96018;-73
2023/01/15 02:16:24;;;;;;;9.80;5.50;;;;;;;4.16;62.11;96661.21;108716;1251;103635;-73
2023/01/15 02:18:55;;;;;;;10.40;5.60;;;;;;;4.18;61.78;96657.51;108286;1261;101500;-76
2023/01/15 02:21:27;;;;;;;7.10;4.80;;;;;;;4.22;61.81;96653.30;108264;1260;99989;-74
2023/01/15 02:24:15;;;;;;;9.70;5.00;;;;;;;4.26;61.88;96646.52;108170;1260;96003;-73
2023/01/15 02:27:10;;;;;;;8.40;4.60;;;;;;;4.31;61.66;96644.85;108141;1264;96153;-74
2023/01/15 02:30:01;;;;;;;7.70;4.50;;;;;;;4.36;61.43;96644.93;108247;1260;103609;-74
2023/01/15 02:32:38;;;;;;;5.90;4.00;;;;;;;4.40;61.30;96640.99;108199;1260;101396;-73
2023/01/15 02:35:13;;;;;;;9.70;4.10;;;;;;;4.46;61.25;96640.26;108182;1260;99924;-76
2023/01/15 02:37:45;;;;;;;6.40;4.10;;;;;;;4.52;60.96;96644.35;108194;1261;95693;-74
2023/01/15 02:40:15;;;;;;;7.00;3.30;;;;;;;4.59;60.91;96641.98;108211;1260;97008;-73
2023/01/15 02:42:46;;;;;;;8.00;3.80;;;;;;;4.66;60.67;96641.15;108104;1258;103854;-73
2023/01/15 02:45:22;;;;;;;6.00;3.50;;;;;;;4.71;60.32;96639.05;108241;1260;101339;-74
2023/01/15 02:47:53;;;;;;;6.50;3.40;;;;;;;4.76;60.21;96634.52;108230;1258;98465;-75
2023/01/15 02:50:27;;;;;;;5.80;2.90;;;;;;;4.80;60.23;96635.66;108198;1259;95631;-74
2023/01/15 02:53:04;;;;;;;4.30;2.50;;;;;;;4.86;60.13;96633.15;108209;1260;96042;-75
2023/01/15 02:55:39;;;;;;;6.40;2.70;;;;;;;4.94;59.80;96621.56;108549;1256;104030;-73
2023/01/15 02:58:12;;;;;;;6.30;2.60;;;;;;;4.99;59.77;96622.83;108882;1251;101752;-74
2023/01/15 03:00:41;;;;;;;;;;;;;;;5.03;59.58;96621.14;108804;1251;100356;-75
2023/01/15 03:03:36;;;;;;;5.30;2.60;;;;;;;5.07;59.23;96621.99;108854;1251;95531;-73
2023/01/15 03:06:32;;;;;;;6.20;2.90;;;;;;;5.13;59.21;96615.36;108792;1251;95972;-73
2023/01/15 03:09:01;;;;;;;4.80;2.50;;;;;;;5.18;59.06;96609.39;108564;1251;103457;-75
2023/01/15 03:11:36;;;;;;;6.50;3.00;;;;;;;5.21;58.78;96605.23;108493;1253;101375;-74
2023/01/15 03:14:21;;;;;;;5.00;2.70;;;;;;;5.21;58.63;96598.98;108815;1251;100000;-74
2023/01/15 03:16:54;;;;;;;5.80;3.40;;;;;;;5.20;58.78;96597.66;108842;1251;95531;-74
2023/01/15 03:19:34;;;;;;;5.30;3.10;;;;;;;5.19;58.69;96602.23;108637;1251;95983;-75
2023/01/15 03:22:08;;;;;;;4.10;3.20;;;;;;;5.19;58.69;96610.09;108856;1251;103642;-74
2023/01/15 03:24:54;;;;;;;5.00;3.60;;;;;;;5.17;58.70;96606.34;108852;1250;110408;-74
2023/01/15 03:27:23;;;;;;;6.40;3.60;;;;;;;5.17;58.61;96608.48;108841;1251;99915;-73
2023/01/15 03:29:58;;;;;;;5.10;3.60;;;;;;;5.15;58.57;96603.82;108830;1251;95553;-74
2023/01/15 03:32:27;;;;;;;7.40;3.30;;;;;;;5.14;57.92;96598.79;108851;1251;95985;-75
2023/01/15 03:34:56;;;;;;;5.40;2.90;;;;;;;5.13;58.37;96591.58;108900;1251;102485;-73
2023/01/15 03:37:27;;;;;;;6.20;3.10;;;;;;;5.15;58.35;96593.36;108888;1251;101227;-74
2023/01/15 03:39:58;;;;;;;5.20;3.50;;;;;;;5.16;58.26;96600.66;108870;1251;100004;-74
2023/01/15 03:45:42;;;;;;;4.30;2.70;;;;;;;5.17;58.15;96600.25;108863;1251;95804;-74
2023/01/15 03:48:27;;;;;;;6.00;2.90;;;;;;;5.17;58.15;96603.49;108878;1251;103502;-74
2023/01/15 03:51:03;;;;;;;5.10;3.00;;;;;;;5.18;57.98;96605.11;108845;1251;101555;-74
2023/01/15 03:53:49;;;;;;;5.90;2.90;;;;;;;5.17;58.03;96607.33;108824;1251;100117;-74
2023/01/15 03:56:54;;;;;;;5.80;2.80;;;;;;;5.18;58.18;96615.64;108827;1251;95547;-73
2023/01/15 03:59:29;;;;;;;4.10;2.30;;;;;;;5.18;58.21;96610.05;108830;1251;96006;-74
2023/01/15 04:01:58;;;;;;;5.00;2.40;;;;;;;5.19;58.05;96605.36;108903;1251;103792;-74
2023/01/15 04:04:28;;;;;;;4.60;2.80;;;;;;;5.19;58.22;96608.86;108849;1251;101355;-73
2023/01/15 04:06:58;;;;;;;3.70;2.70;;;;;;;5.18;58.23;96609.52;108854;1251;99637;-73
2023/01/15 04:09:27;;;;;;;4.90;2.40;;;;;;;5.17;58.22;96610.54;108820;1251;95707;-76
2023/01/15 04:11:59;;;;;;;3.90;2.60;;;;;;;5.16;58.21;96612.17;108904;1251;96387;-74
2023/01/15 04:14:30;;;;;;;4.30;2.90;;;;;;;5.17;57.99;96606.46;108856;1251;102663;-74
2023/01/15 04:16:58;;;;;;;5.30;2.50;;;;;;;5.17;58.14;96606.21;108860;1251;101203;-75
2023/01/15 04:19:26;;;;;;;4.70;2.60;;;;;;;5.18;58.13;96596.10;108839;1251;100092;-73
2023/01/15 04:21:54;;;;;;;4.60;2.30;;;;;;;5.19;58.10;96588.16;108808;1251;95672;-74
2023/01/15 04:24:22;;;;;;;3.90;2.80;;;;;;;5.19;58.21;96581.89;108864;1251;96040;-74
2023/01/15 04:26:51;;;;;;;5.70;2.30;;;;;;;5.20;58.08;96583.23;108920;1251;104449;-74
2023/01/15 04:29:19;;;;;;;3.30;2.20;;;;;;;5.20;57.87;96581.76;108905;1251;101882;-73
2023/01/15 04:31:47;;;;;;;4.50;2.50;;;;;;;5.20;57.85;96583.16;108531;1252;99974;-75
2023/01/15 04:34:15;;;;;;;7.30;2.40;;;;;;;5.21;57.81;96580.54;108663;1251;95972;-73
2023/01/15 04:36:45;;;;;;;6.20;2.80;;;;;;;5.21;57.78;96581.81;108624;1254;95991;-74
2023/01/15 04:39:13;;;;;;;4.60;2.50;;;;;;;5.22;57.76;96578.19;108790;1251;103419;-73
2023/01/15 04:44:28;;;;;;;7.50;2.90;;;;;;;5.23;57.71;96570.46;108836;1251;99173;-76
2023/01/15 04:46:58;;;;;;;4.60;2.60;;;;;;;5.23;57.81;96561.08;108868;1251;95525;-74
2023/01/15 04:49:27;;;;;;;3.40;2.10;;;;;;;5.23;57.74;96555.56;108899;1251;96175;-74
2023/01/15 04:51:55;;;;;;;3.40;2.10;;;;;;;5.23;57.83;96544.29;108872;1251;103474;-76
2023/01/15 04:54:23;;;;;;;5.50;2.90;;;;;;;5.23;57.87;96544.82;108842;1251;110115;-76
2023/01/15 04:56:53;;;;;;;6.10;3.00;;;;;;;5.24;57.71;96533.05;108828;1251;99828;-74
2023/01/15 04:59:24;;;;;;;4.30;2.10;;;;;;;5.24;57.59;96526.67;108833;1251;95537;-74
2023/01/15 05:01:53;;;;;;;5.10;2.30;;;;;;;5.24;57.58;96520.38;108861;1251;96064;-73
2023/01/15 05:04:21;;;;;;;4.50;2.50;;;;;;;5.26;57.75;96517.71;108857;1251;103619;-74
2023/01/15 05:06:50;;;;;;;4.20;2.00;;;;;;;5.28;57.70;96506.73;108861;1251;100054;-74
2023/01/15 05:09:18;;;;;;;6.00;2.40;;;;;;;5.30;57.61;96499.28;108833;1251;99821;-74
2023/01/15 05:11:46;;;;;;;3.10;2.00;;;;;;;5.34;57.71;96498.96;108604;1253;96535;-73
2023/01/15 05:14:14;;;;;;;2.80;2.00;;;;;;;5.38;57.64;96498.58;108815;1251;96263;-74
2023/01/15 05:16:43;;;;;;;3.70;2.10;;;;;;;5.41;57.56;96500.52;108663;1254;102495;-75
2023/01/15 05:19:11;;;;;;;4.60;2.10;;;;;;;5.42;57.53;96501.48;108844;1251;101559;-73
2023/01/15 05:21:43;;;;;;;4.70;2.60;;;;;;;5.43;57.55;96501.27;108858;1251;99026;-74
2023/01/15 05:24:15;;;;;;;4.40;2.40;;;;;;;5.45;57.37;96498.20;108515;1253;95701;-75
2023/01/15 05:26:43;;;;;;;2.40;1.70;;;;;;;5.47;57.28;96490.93;108912;1251;95619;-73
2023/01/15 05:29:13;;;;;;;4.70;2.20;;;;;;;5.48;57.23;96490.23;108947;1251;103445;-73
2023/01/15 05:31:43;;;;;;;3.10;1.90;;;;;;;5.48;57.23;96490.52;108829;1251;101400;-74
2023/01/15 05:34:13;;;;;;;3.90;1.80;;;;;;;5.49;57.25;96488.47;108836;1251;99915;-74
2023/01/15 05:36:41;;;;;;;3.80;2.10;;;;;;;5.48;57.38;96483.95;108871;1251;95805;-74
2023/01/15 05:39:10;;;;;;;6.60;1.90;;;;;;;5.46;57.22;96478.70;108931;1251;95756;-74
2023/01/15 05:41:50;;;;;;;3.50;2.20;;;;;;;5.43;57.10;96472.65;108929;1251;102246;-74
2023/01/15 05:44:24;;;;;;;3.80;2.50;;;;;;;5.40;57.18;96466.76;108908;1251;101311;-74
2023/01/15 05:46:55;;;;;;;2.90;2.30;;;;;;;5.39;57.31;96458.48;108867;1251;99818;-75
2023/01/15 05:49:25;;;;;;;4.70;2.20;;;;;;;5.41;57.33;96452.06;108553;1252;95663;-73
2023/01/15 05:51:54;;;;;;;4.90;2.50;;;;;;;5.42;57.27;96447.75;108880;1251;95801;-73
2023/01/15 05:54:28;;;;;;;3.70;2.20;;;;;;;5.42;57.35;96442.77;108916;1251;103474;-73
2023/01/15 05:56:57;;;;;;;4.50;2.20;;;;;;;5.42;57.30;96440.89;108882;1250;100320;-74
2023/01/15 05:59:27;;;;;;;4.00;2.50;;;;;;;5.44;57.33;96438.59;108614;1251;100167;-73
2023/01/15 06:01:55;;;;;;;3.70;2.20;;;;;;;5.45;57.41;96443.98;108866;1251;95599;-74
2023/01/15 06:04:24;;;;;;;4.80;2.70;;;;;;;5.44;57.38;96446.94;108905;1251;95738;-73
2023/01/15 06:06:54;;;;;;;4.10;2.40;;;;;;;5.43;57.34;96444.82;108864;1251;103301;-74
2023/01/15 06:09:23;;;;;;;5.10;2.60;;;;;;;5.40;57.11;96440.29;108892;1251;101763;-74
2023/01/15 06:11:54;;;;;;;3.70;2.40;;;;;;;5.38;57.09;96438.05;108851;1251;99164;-74
2023/01/15 06:14:22;;;;;;;4.00;2.30;;;;;;;5.35;57.12;96437.95;108897;1251;95545;-74
2023/01/15 06:16:51;;;;;;;5.00;2.60;;;;;;;5.33;57.11;96428.27;108907;1251;95914;-75
2023/01/15 06:19:19;;;;;;;6.40;2.60;;;;;;;5.32;57.21;96426.58;108922;1251;103481;-73
2023/01/15 06:21:48;;;;;;;4.20;2.70;;;;;;;5.32;57.22;96426.41;108929;1250;101589;-73
2023/01/15 06:24:16;;;;;;;4.40;2.50;;;;;;;5.31;57.21;96425.95;108869;1251;99022;-73
2023/01/15 06:26:44;;;;;;;4.80;2.60;;;;;;;5.31;57.28;96425.84;108857;1251;95546;-74
2023/01/15 06:29:17;;;;;;;7.20;3.40;;;;;;;5.30;57.28;96436.14;108920;1251;95805;-73
2023/01/15 06:31:45;;;;;;;5.10;3.10;;;;;;;5.30;57.25;96431.16;108809;1251;103432;-74
2023/01/15 06:34:13;;;;;;;5.50;3.00;;;;;;;5.31;57.39;96424.50;108853;1251;101206;-73
2023/01/15 06:36:41;;;;;;;4.60;2.80;;;;;;;5.31;57.40;96426.37;108670;1251;99890;-74
2023/01/15 06:39:09;;;;;;;7.40;3.20;;;;;;;5.32;57.48;96418.27;108855;1251;95761;-73
2023/01/15 06:47:20;;;;;;;5.00;3.10;;;;;;;5.29;57.32;96415.39;108727;1251;100112;-73
2023/01/15 06:49:57;;;;;;;5.30;2.90;;;;;;;5.30;57.34;96416.05;108933;1251;99410;-74
2023/01/15 06:52:26;;;;;;;4.70;2.70;;;;;;;5.30;57.44;96415.43;108856;1251;95560;-73
2023/01/15 06:54:55;;;;;;;5.20;3.20;;;;;;;5.30;57.48;96421.52;108893;1251;95571;-73
2023/01/15 06:57:23;;;;;;;4.60;2.90;;;;;;;5.30;57.37;96424.61;108878;1251;103325;-73
2023/01/15 06:59:51;;;;;;;5.40;3.10;;;;;;;5.30;57.45;96421.16;108864;1250;101230;-74
2023/01/15 07:02:21;;;;;;;6.40;2.60;;;;;;;5.32;57.54;96417.73;108910;1251;99871;-74
2023/01/15 07:04:49;;;;;;;7.40;2.90;;;;;;;5.33;57.45;96417.56;108916;1251;95514;-73
2023/01/15 07:07:19;;;;;;;4.30;2.90;;;;;;;5.34;57.35;96414.77;108913;1251;95809;-73
2023/01/15 07:09:47;;;;;;;6.70;2.50;;;;;;;5.36;57.29;96412.89;108865;1251;103270;-74
2023/01/15 07:12:16;;;;;;;3.10;2.40;;;;;;;5.40;57.21;96417.02;108876;1251;101330;-75
2023/01/15 07:14:44;;;;;;;4.40;2.60;;;;;;;5.44;57.30;96413.43;108848;1251;99639;-74
2023/01/15 07:17:13;;;;;;;4.60;2.40;;;;;;;5.47;57.38;96415.17;108801;1251;95610;-74
2023/01/15 07:19:41;;;;;;;5.50;2.50;;;;;;;5.50;57.32;96414.52;108850;1253;96162;-73
2023/01/15 07:22:10;;;;;;;6.10;2.70;;;;;;;5.53;57.19;96416.42;108534;1252;103672;-73
2023/01/15 07:24:39;;;;;;;7.10;2.80;;;;;;;5.57;57.27;96414.80;108874;1251;100295;-73
2023/01/15 07:27:07;;;;;;;7.00;2.30;;;;;;;5.61;57.28;96411.19;108779;1252;99870;-73
2023/01/15 07:29:35;;;;;;;5.50;2.60;;;;;;;5.64;57.16;96413.42;108743;1253;96079;-73
2023/01/15 07:32:04;;;;;;;5.50;2.90;;;;;;;5.68;57.12;96418.65;108799;1253;95709;-73
2023/01/15 07:34:32;;;;;;;6.30;2.20;;;;;;;5.72;57.05;96422.58;108883;1251;103747;-73
2023/01/15 07:37:00;;;;;;;6.40;2.80;;;;;;;5.75;57.09;96422.63;108879;1251;101270;-74
2023/01/15 07:39:30;;;;;;;4.70;3.10;;;;;;;5.78;57.06;96427.74;108904;1251;98380;-73
2023/01/15 07:50:29;;;;;;;4.30;2.30;;;;;;;5.88;56.98;96406.70;108348;1256;101889;-74
2023/01/15 07:52:57;;;;;;;4.50;3.10;;;;;;;5.88;56.94;96409.91;108342;1256;99060;-74
2023/01/15 07:55:25;;;;;;;6.20;2.80;;;;;;;5.89;57.08;96412.65;108190;1256;95817;-75
2023/01/15 07:57:53;;;;;;;5.10;3.10;;;;;;;5.91;56.98;96410.59;108410;1256;95830;-74
2023/01/15 08:00:24;;;;;;;5.80;3.40;;;;;;;5.90;56.85;96406.77;108353;1256;103505;-73
2023/01/15 08:02:52;;;;;;;4.00;2.40;;;;;;;5.89;56.90;96402.80;108365;1256;101274;-75
2023/01/15 08:05:21;;;;;;;4.10;2.70;;;;;;;5.90;56.96;96398.36;108270;1256;99948;-74
2023/01/15 08:07:49;;;;;;;4.10;2.50;;;;;;;5.93;57.02;96398.34;108358;1256;95652;-75
2023/01/15 08:10:18;;;;;;;4.50;2.70;;;;;;;5.93;56.92;96396.02;108201;1256;95686;-74
2023/01/15 08:15:39;;;;;;;3.20;2.40;;;;;;;5.90;56.80;96401.70;108385;1256;101566;-75
2023/01/15 08:18:07;;;;;;;3.70;2.20;;;;;;;5.91;56.77;96401.40;108398;1254;99996;-75
2023/01/15 08:20:36;;;;;;;2.90;2.30;;;;;;;5.94;56.87;96404.44;108747;1252;95685;-73
2023/01/15 08:23:04;;;;;;;3.20;2.20;;;;;;;5.96;56.61;96403.16;108775;1252;95671;-74
2023/01/15 08:25:32;;;;;;;3.70;2.20;;;;;;;5.98;56.49;96400.69;108457;1252;102773;-73
2023/01/15 08:28:02;;;;;;;4.60;2.80;;;;;;;6.00;56.44;96395.59;108779;1252;101592;-74
2023/01/15 08:30:30;;;;;;;3.70;2.80;;;;;;;6.01;55.99;96391.17;108787;1251;99936;-75
2023/01/15 08:33:02;;;;;;;5.40;2.60;;;;;;;6.01;56.14;96384.13;108819;1251;95605;-74
2023/01/15 08:35:33;;;;;;;4.00;2.30;;;;;;;6.05;56.13;96375.75;108806;1252;96524;-75
2023/01/15 08:38:08;;;;;;;6.40;2.50;;;;;;;6.08;56.09;96371.74;108858;1251;103463;-74
2023/01/15 08:40:57;;;;;;;3.40;2.30;;;;;;;6.13;56.28;96371.46;108834;1252;101650;-74
2023/01/15 08:43:30;;;;;;;9.30;3.00;;;;;;;6.20;56.18;96374.91;108540;1252;98917;-75
2023/01/15 08:46:00;;;;;;;3.70;2.30;;;;;;;6.26;56.10;96372.05;108796;1251;95886;-73
2023/01/15 08:48:30;;;;;;;3.90;2.60;;;;;;;6.33;56.08;96373.36;108866;1251;95693;-74
2023/01/15 08:50:59;;;;;;;3.40;2.30;;;;;;;6.42;56.06;96364.95;108912;1251;103503;-74
2023/01/15 08:53:28;;;;;;;6.00;3.00;;;;;;;6.50;56.00;96361.06;108804;1251;101633;-74
2023/01/15 08:55:56;;;;;;;5.10;2.40;;;;;;;6.57;55.90;96361.77;108827;1251;100096;-74
2023/01/15 08:58:27;;;;;;;3.70;2.10;;;;;;;6.65;55.60;96355.84;108877;1251;95643;-74
2023/01/15 09:00:55;;;;;;;4.20;2.50;;;;;;;6.72;55.22;96350.84;108880;1251;95603;-74
2023/01/15 09:03:23;;;;;;;4.30;2.20;;;;;;;6.76;55.19;96350.85;108871;1251;103486;-74
2023/01/15 09:05:51;;;;;;;4.50;2.50;;;;;;;6.80;55.24;96347.12;108846;1251;101295;-74
2023/01/15 09:08:19;;;;;;;4.60;2.20;;;;;;;6.87;55.33;96340.77;108587;1256;98885;-74
2023/01/15 09:10:48;;;;;;;5.20;2.40;;;;;;;6.93;55.24;96333.27;108833;1251;95701;-74
2023/01/15 09:13:16;;;;;;;5.10;2.60;;;;;;;6.97;55.34;96328.36;108844;1252;96886;-74
2023/01/15 09:15:44;;;;;;;6.20;2.50;;;;;;;7.00;55.17;96326.68;108787;1252;103634;-75
2023/01/15 09:18:15;;;;;;;5.50;2.30;;;;;;;7.02;54.75;96323.73;108783;1252;101569;-74
2023/01/15 09:20:43;;;;;;;4.10;2.80;;;;;;;7.02;54.86;96320.34;108807;1252;100130;-75
2023/01/15 09:23:11;;;;;;;5.20;2.70;;;;;;;7.03;54.69;96327.15;108527;1252;95782;-73
2023/01/15 09:25:40;;;;;;;4.50;2.50;;;;;;;7.03;54.47;96325.58;108765;1252;95590;-74
2023/01/15 09:28:08;;;;;;;4.90;2.70;;;;;;;7.04;54.67;96327.18;108770;1252;103519;-74
2023/01/15 09:30:36;;;;;;;5.00;2.90;;;;;;;7.05;54.63;96320.95;108811;1253;101205;-74
2023/01/15 09:33:04;;;;;;;8.20;2.70;;;;;;;7.05;54.52;96317.08;108825;1251;99026;-74
2023/01/15 09:35:32;;;;;;;4.10;2.00;;;;;;;7.04;54.59;96313.52;108869;1251;95625;-73
2023/01/15 09:38:00;;;;;;;8.80;4.70;;;;;;;7.04;54.41;96309.48;108865;1251;95590;-73
2023/01/15 09:40:48;;;;;;;5.80;3.10;;;;;;;7.03;54.49;96304.94;108906;1251;103675;-74
2023/01/15 09:43:44;;;;;;;5.60;3.30;;;;;;;7.03;54.34;96299.37;108339;1250;101427;-73
2023/01/15 09:46:50;;;;;;;5.40;3.50;;;;;;;7.02;54.28;96291.61;108620;1251;101537;-73
2023/01/15 09:49:58;;;;;;;5.20;3.40;;;;;;;7.01;54.18;96284.64;108302;1258;96237;-74
2023/01/15 09:52:44;;;;;;;5.40;3.20;;;;;;;6.99;54.23;96280.78;108319;1258;95822;-73
2023/01/15 09:55:24;;;;;;;6.20;3.40;;;;;;;6.98;54.14;96277.66;108304;1258;103817;-75
2023/01/15 09:57:58;;;;;;;8.30;3.80;;;;;;;6.97;54.05;96282.63;108358;1258;101513;-73
2023/01/15 10:00:29;;;;;;;8.90;4.90;;;;;;;6.99;54.17;96276.90;108149;1257;99383;-74
2023/01/15 10:03:12;;;;;;;9.20;3.80;;;;;;;7.03;54.33;96276.55;108156;1257;96022;-74
2023/01/15 10:06:19;;;;;;;6.40;3.40;;;;;;;7.04;54.12;96274.19;108315;1259;95639;-74
2023/01/15 10:08:49;;;;;;;6.70;3.80;;;;;;;7.03;53.90;96277.73;107991;1264;103784;-74
2023/01/15 10:12:33;;;;;;;6.80;3.70;;;;;;;7.04;53.81;96280.33;107764;1265;101370;-73
2023/01/15 10:14:19;;;;;;;9.00;3.90;;;;;;;7.06;53.73;96278.22;107941;1264;109503;-74
2023/01/15 10:16:47;;;;;;;10.10;4.00;;;;;;;7.05;53.61;96275.13;107961;1264;95677;-74
2023/01/15 10:19:15;;;;;;;6.10;3.60;;;;;;;7.04;53.57;96282.02;107967;1264;96521;-74
2023/01/15 10:22:07;;;;;;;9.40;3.80;;;;;;;7.07;53.57;96281.97;107938;1265;103665;-74
2023/01/15 10:24:39;;;;;;;6.20;3.60;;;;;;;7.08;53.33;96275.45;107870;1259;101127;-74
2023/01/15 10:27:23;;;;;;;6.80;3.40;;;;;;;7.08;53.40;96256.70;108266;1258;99844;-74
2023/01/15 10:30:03;;;;;;;5.60;3.10;;;;;;;7.08;53.48;96252.79;108286;1257;95610;-74
2023/01/15 10:32:51;;;;;;;9.00;4.20;;;;;;;7.08;53.42;96254.72;108283;1258;95894;-74
2023/01/15 10:35:40;;;;;;;4.40;2.90;;;;;;;7.10;53.37;96257.80;108328;1259;103577;-74
2023/01/15 10:38:26;;;;;;;6.60;3.20;;;;;;;7.14;53.30;96256.90;108173;1258;103877;-75
2023/01/15 10:41:06;;;;;;;6.80;4.00;;;;;;;7.16;53.20;96272.00;108275;1259;99904;-76
2023/01/15 10:43:43;;;;;;;6.60;3.70;;;;;;;7.16;53.24;96274.68;108188;1259;95990;-74
2023/01/15 10:46:17;;;;;;;6.60;3.70;;;;;;;7.17;53.22;96265.27;108375;1252;96552;-74
2023/01/15 10:48:53;;;;;;;7.80;4.20;;;;;;;7.18;53.33;96259.40;108835;1252;103094;-74
2023/01/15 10:51:24;;;;;;;7.70;4.10;;;;;;;7.18;53.12;96253.08;108828;1252;101494;-74
2023/01/15 10:53:59;;;;;;;8.00;4.60;;;;;;;7.17;53.16;96254.70;108784;1252;99114;-74
2023/01/15 10:56:34;;;;;;;7.30;3.90;;;;;;;7.16;53.15;96254.41;108765;1253;95882;-74
2023/01/15 10:59:35;;;;;;;6.10;3.90;;;;;;;7.15;53.08;96254.70;108853;1252;95661;-74
2023/01/15 11:02:30;;;;;;;13.80;4.50;;;;;;;7.13;52.91;96249.59;108319;1258;103172;-75
2023/01/15 11:04:59;;;;;;;9.50;5.10;;;;;;;7.12;52.96;96241.45;108275;1259;101033;-74
2023/01/15 11:07:42;;;;;;;6.80;4.80;;;;;;;7.13;53.01;96244.69;108239;1258;100589;-74
2023/01/15 11:10:14;;;;;;;7.80;4.80;;;;;;;7.14;52.94;96238.80;108251;1259;96110;-74
2023/01/15 11:21:24;;;;;;;8.10;4.80;;;;;;;7.16;52.78;96244.20;108239;1259;99157;-74
2023/01/15 11:23:54;;;;;;;7.10;4.00;;;;;;;7.18;52.86;96243.20;108134;1259;95647;-74
2023/01/15 11:26:26;;;;;;;8.10;4.70;;;;;;;7.19;52.83;96242.05;108284;1259;95939;-74
2023/01/15 11:28:55;;;;;;;8.80;4.70;;;;;;;7.19;52.72;96238.08;108285;1259;103155;-74
2023/01/15 11:31:35;;;;;;;7.40;4.60;;;;;;;7.17;52.71;96233.88;108082;1259;101339;-74
2023/01/15 11:34:06;;;;;;;8.30;4.50;;;;;;;7.16;52.75;96239.38;108206;1259;100137;-73
2023/01/15 11:36:37;;;;;;;9.10;4.50;;;;;;;7.16;53.00;96236.95;108232;1259;95640;-74
2023/01/15 11:39:05;;;;;;;7.90;4.50;;;;;;;7.17;53.16;96231.03;108455;1253;95706;-74
2023/01/15 11:53:22;;;;;;;5.40;3.60;;;;;;;7.22;53.36;96226.54;108873;1253;95803;-74
2023/01/15 11:55:54;;;;;;;5.60;3.40;;;;;;;7.23;53.49;96231.25;108858;1253;103406;-75
2023/01/15 11:58:23;;;;;;;7.60;3.70;;;;;;;7.23;53.86;96229.97;108601;1252;101253;-74
2023/01/15 12:00:54;;;;;;;7.00;3.80;;;;;;;7.22;53.87;96227.61;108820;1252;99154;-75
2023/01/15 12:03:27;;;;;;;5.30;3.60;;;;;;;7.22;53.90;96226.70;108584;1252;95612;-74
2023/01/15 12:06:05;;;;;;;;;;;;;;;7.18;54.05;96217.08;108829;1252;95650;-74
2023/01/15 12:08:52;;;;;;;6.00;3.40;;;;;;;7.13;54.02;96219.38;108840;1252;103274;-75
2023/01/15 12:11:36;;;;;;;5.60;3.80;;;;;;;7.13;54.20;96217.52;108820;1253;101143;-75
2023/01/15 12:14:07;;;;;;;7.40;3.50;;;;;;;7.12;54.23;96218.27;108807;1252;99245;-75
2023/01/15 12:17:01;;;;;;;5.80;3.60;;;;;;;7.12;54.22;96213.65;108774;1252;95619;-76
2023/01/15 12:19:32;;;;;;;6.80;3.80;;;;;;;7.08;54.49;96210.63;108733;1253;96273;-74
2023/01/15 12:22:09;;;;;;;7.70;3.70;;;;;;;7.06;54.49;96210.02;108751;1252;103572;-74
2023/01/15 12:24:40;;;;;;;9.60;4.40;;;;;;;7.05;54.54;96210.67;108817;1253;101266;-75
2023/01/15 12:27:26;;;;;;;7.70;4.00;;;;;;;7.02;54.13;96205.42;108780;1251;100072;-75
2023/01/15 12:30:22;;;;;;;5.30;3.20;;;;;;;7.00;54.44;96201.23;108640;1253;95592;-75
2023/01/15 12:33:04;;;;;;;4.70;3.20;;;;;;;7.01;54.56;96202.70;108465;1253;96145;-74
2023/01/15 12:35:38;;;;;;;6.80;4.10;;;;;;;7.06;54.71;96197.06;108817;1252;102231;-74
2023/01/15 12:38:18;;;;;;;7.50;4.20;;;;;;;7.12;54.77;96201.92;108590;1253;100363;-74
2023/01/15 12:40:59;;;;;;;11.80;6.40;;;;;;;7.15;54.66;96201.35;108807;1252;99532;-74